sensor_id;sensor_type;location;lat;lon;timestamp;P1;durP1;ratioP1;P2;durP2;ratioP2
31348;SDS011;17976;48.480;11.946;2023-09-12T08:00:03;16.15;;;12.15;;
31348;SDS011;17976;48.480;11.946;2023-09-12T08:02:31;20.33;;;11.98;;
31348;SDS011;17976;48.480;11.946;2023-09-12T08:04:57;17.08;;;11.23;;
31348;SDS011;17976;48.480;11.946;2023-09-12T08:07:23;15.80;;;11.50;;
31348;SDS011;17976;48.480;11.946;2023-09-12T08:09:56;23.42;;;11.27;;
31348;SDS011;17976;48.480;11.946;2023-09-12T08:12:23;22.05;;;12.27;;
31348;SDS011;17976;48.480;11.946;2023-09-12T08:14:49;17.95;;;11.68;;
31348;SDS011;17976;48.480;11.946;2023-09-12T08:17:15;15.93;;;11.35;;
31348;SDS011;17976;48.480;11.946;2023-09-12T08:19:41;18.48;;;13.15;;
31348;SDS011;17976;48.480;11.946;2023-09-12T08:22:08;15.50;;;12.88;;
31348;SDS011;17976;48.480;11.946;2023-09-12T08:24:35;18.25;;;11.65;;
31348;SDS011;17976;48.480;11.946;2023-09-12T08:27:01;17.98;;;11.07;;
31348;SDS011;17976;48.480;11.946;2023-09-12T08:29:28;18.88;;;11.05;;
31348;SDS011;17976;48.480;11.946;2023-09-12T08:31:54;15.25;;;11.98;;
31348;SDS011;17976;48.480;11.946;2023-09-12T08:34:20;14.93;;;10.82;;
31348;SDS011;17976;48.480;11.946;2023-09-12T08:36:46;14.38;;;10.02;;
31348;SDS011;17976;48.480;11.946;2023-09-12T08:39:14;14.50;;;10.20;;
31348;SDS011;17976;48.480;11.946;2023-09-12T08:41:41;11.75;;;9.32;;
31348;SDS011;17976;48.480;11.946;2023-09-12T08:44:07;14.60;;;9.32;;
31348;SDS011;17976;48.480;11.946;2023-09-12T08:46:33;15.30;;;9.70;;
31348;SDS011;17976;48.480;11.946;2023-09-12T08:48:59;16.35;;;9.25;;
31348;SDS011;17976;48.480;11.946;2023-09-12T08:51:25;17.50;;;10.18;;
31348;SDS011;17976;48.480;11.946;2023-09-12T08:53:52;13.93;;;9.68;;
31348;SDS011;17976;48.480;11.946;2023-09-12T08:56:18;14.80;;;8.82;;
31348;SDS011;17976;48.480;11.946;2023-09-12T08:58:44;10.65;;;8.35;;
31348;SDS011;17976;48.480;11.946;2023-09-12T09:01:13;14.68;;;9.27;;
31348;SDS011;17976;48.480;11.946;2023-09-12T09:03:39;12.13;;;8.40;;
31348;SDS011;17976;48.480;11.946;2023-09-12T09:06:06;13.82;;;9.38;;
31348;SDS011;17976;48.480;11.946;2023-09-12T09:08:34;14.63;;;9.13;;
31348;SDS011;17976;48.480;11.946;2023-09-12T09:11:00;13.82;;;8.23;;
31348;SDS011;17976;48.480;11.946;2023-09-12T09:13:31;17.17;;;9.10;;
31348;SDS011;17976;48.480;11.946;2023-09-12T09:16:16;13.07;;;9.00;;
31348;SDS011;17976;48.480;11.946;2023-09-12T09:21:19;11.75;;;9.30;;
31348;SDS011;17976;48.480;11.946;2023-09-12T09:23:47;12.70;;;8.90;;
31348;SDS011;17976;48.480;11.946;2023-09-12T09:26:13;16.95;;;8.90;;
31348;SDS011;17976;48.480;11.946;2023-09-12T09:28:39;19.35;;;8.82;;
31348;SDS011;17976;48.480;11.946;2023-09-12T09:31:09;17.85;;;10.43;;
31348;SDS011;17976;48.480;11.946;2023-09-12T09:33:36;21.05;;;9.20;;
31348;SDS011;17976;48.480;11.946;2023-09-12T09:36:02;13.55;;;9.13;;
31348;SDS011;17976;48.480;11.946;2023-09-12T09:38:29;16.45;;;9.40;;
31348;SDS011;17976;48.480;11.946;2023-09-12T09:40:55;15.48;;;8.88;;
31348;SDS011;17976;48.480;11.946;2023-09-12T09:43:21;13.27;;;8.45;;
31348;SDS011;17976;48.480;11.946;2023-09-12T09:45:47;20.50;;;9.48;;
31348;SDS011;17976;48.480;11.946;2023-09-12T09:48:20;14.50;;;9.13;;
31348;SDS011;17976;48.480;11.946;2023-09-12T09:50:46;18.35;;;8.63;;
31348;SDS011;17976;48.480;11.946;2023-09-12T09:53:12;12.75;;;8.60;;
31348;SDS011;17976;48.480;11.946;2023-09-12T09:55:38;14.40;;;9.50;;
31348;SDS011;17976;48.480;11.946;2023-09-12T09:58:05;15.75;;;9.13;;
31348;SDS011;17976;48.480;11.946;2023-09-12T10:00:33;11.43;;;8.55;;
31348;SDS011;17976;48.480;11.946;2023-09-12T10:02:59;11.95;;;8.05;;
31348;SDS011;17976;48.480;11.946;2023-09-12T10:05:25;10.40;;;8.00;;
31348;SDS011;17976;48.480;11.946;2023-09-12T10:07:52;14.18;;;8.25;;
31348;SDS011;17976;48.480;11.946;2023-09-12T10:10:19;18.13;;;8.15;;
31348;SDS011;17976;48.480;11.946;2023-09-12T10:12:49;13.15;;;7.57;;
31348;SDS011;17976;48.480;11.946;2023-09-12T10:15:17;11.18;;;7.85;;
31348;SDS011;17976;48.480;11.946;2023-09-12T10:17:45;15.57;;;8.20;;
31348;SDS011;17976;48.480;11.946;2023-09-12T10:20:14;13.23;;;7.63;;
31348;SDS011;17976;48.480;11.946;2023-09-12T10:22:43;11.07;;;8.00;;
31348;SDS011;17976;48.480;11.946;2023-09-12T10:25:15;10.65;;;7.95;;
31348;SDS011;17976;48.480;11.946;2023-09-12T10:27:41;11.10;;;7.47;;
31348;SDS011;17976;48.480;11.946;2023-09-12T10:30:07;10.43;;;7.40;;
31348;SDS011;17976;48.480;11.946;2023-09-12T10:32:33;16.80;;;8.15;;
31348;SDS011;17976;48.480;11.946;2023-09-12T10:35:00;11.75;;;7.80;;
31348;SDS011;17976;48.480;11.946;2023-09-12T10:37:28;16.85;;;8.43;;
31348;SDS011;17976;48.480;11.946;2023-09-12T10:39:55;16.25;;;7.85;;
31348;SDS011;17976;48.480;11.946;2023-09-12T10:42:21;11.82;;;7.85;;
31348;SDS011;17976;48.480;11.946;2023-09-12T10:44:48;8.32;;;7.50;;
31348;SDS011;17976;48.480;11.946;2023-09-12T10:47:14;8.45;;;7.00;;
31348;SDS011;17976;48.480;11.946;2023-09-12T10:49:43;12.90;;;7.85;;
31348;SDS011;17976;48.480;11.946;2023-09-12T10:52:09;9.38;;;8.13;;
31348;SDS011;17976;48.480;11.946;2023-09-12T10:57:02;8.48;;;7.40;;
31348;SDS011;17976;48.480;11.946;2023-09-12T10:59:28;12.00;;;7.30;;
31348;SDS011;17976;48.480;11.946;2023-09-12T11:02:00;10.45;;;7.10;;
31348;SDS011;17976;48.480;11.946;2023-09-12T11:04:42;9.50;;;7.03;;
31348;SDS011;17976;48.480;11.946;2023-09-12T11:10:15;12.38;;;7.20;;
31348;SDS011;17976;48.480;11.946;2023-09-12T11:12:43;16.20;;;7.00;;
31348;SDS011;17976;48.480;11.946;2023-09-12T11:15:10;12.60;;;7.30;;
31348;SDS011;17976;48.480;11.946;2023-09-12T11:17:40;11.77;;;7.53;;
31348;SDS011;17976;48.480;11.946;2023-09-12T11:20:06;7.88;;;5.97;;
31348;SDS011;17976;48.480;11.946;2023-09-12T11:22:35;8.15;;;6.38;;
31348;SDS011;17976;48.480;11.946;2023-09-12T11:25:02;7.43;;;6.30;;
31348;SDS011;17976;48.480;11.946;2023-09-12T11:27:43;11.90;;;6.82;;
31348;SDS011;17976;48.480;11.946;2023-09-12T11:30:10;11.85;;;6.85;;
31348;SDS011;17976;48.480;11.946;2023-09-12T11:32:36;10.82;;;6.70;;
31348;SDS011;17976;48.480;11.946;2023-09-12T11:35:06;13.88;;;6.20;;
31348;SDS011;17976;48.480;11.946;2023-09-12T11:37:32;8.75;;;6.18;;
31348;SDS011;17976;48.480;11.946;2023-09-12T11:40:01;9.27;;;6.10;;
31348;SDS011;17976;48.480;11.946;2023-09-12T11:42:28;11.05;;;5.85;;
31348;SDS011;17976;48.480;11.946;2023-09-12T11:44:54;6.43;;;5.82;;
31348;SDS011;17976;48.480;11.946;2023-09-12T11:47:20;15.15;;;6.25;;
31348;SDS011;17976;48.480;11.946;2023-09-12T11:49:46;11.98;;;6.50;;
31348;SDS011;17976;48.480;11.946;2023-09-12T11:52:13;8.52;;;6.22;;
31348;SDS011;17976;48.480;11.946;2023-09-12T11:54:41;10.45;;;6.28;;
31348;SDS011;17976;48.480;11.946;2023-09-12T11:57:08;8.35;;;6.28;;
31348;SDS011;17976;48.480;11.946;2023-09-12T11:59:37;12.32;;;6.80;;
31348;SDS011;17976;48.480;11.946;2023-09-12T12:02:08;7.30;;;6.22;;
31348;SDS011;17976;48.480;11.946;2023-09-12T12:04:34;10.05;;;6.65;;
31348;SDS011;17976;48.480;11.946;2023-09-12T12:07:00;10.02;;;6.93;;
31348;SDS011;17976;48.480;11.946;2023-09-12T12:09:27;16.00;;;6.45;;
31348;SDS011;17976;48.480;11.946;2023-09-12T12:11:53;8.23;;;6.20;;
31348;SDS011;17976;48.480;11.946;2023-09-12T12:14:19;8.00;;;6.18;;
31348;SDS011;17976;48.480;11.946;2023-09-12T12:16:46;10.10;;;6.38;;
31348;SDS011;17976;48.480;11.946;2023-09-12T12:19:12;11.13;;;6.68;;
31348;SDS011;17976;48.480;11.946;2023-09-12T12:21:39;9.60;;;6.13;;
31348;SDS011;17976;48.480;11.946;2023-09-12T12:24:05;7.15;;;6.45;;
31348;SDS011;17976;48.480;11.946;2023-09-12T12:26:33;8.18;;;6.38;;
31348;SDS011;17976;48.480;11.946;2023-09-12T12:28:59;12.73;;;6.38;;
31348;SDS011;17976;48.480;11.946;2023-09-12T12:31:26;8.23;;;6.00;;
31348;SDS011;17976;48.480;11.946;2023-09-12T12:33:53;8.30;;;6.07;;
31348;SDS011;17976;48.480;11.946;2023-09-12T12:36:19;8.43;;;5.72;;
31348;SDS011;17976;48.480;11.946;2023-09-12T12:38:46;8.77;;;5.60;;
31348;SDS011;17976;48.480;11.946;2023-09-12T12:41:13;8.15;;;5.70;;
31348;SDS011;17976;48.480;11.946;2023-09-12T12:43:40;12.30;;;6.30;;
31348;SDS011;17976;48.480;11.946;2023-09-12T12:46:09;9.38;;;5.85;;
31348;SDS011;17976;48.480;11.946;2023-09-12T12:48:36;9.23;;;5.68;;
31348;SDS011;17976;48.480;11.946;2023-09-12T12:51:19;8.93;;;5.50;;
31348;SDS011;17976;48.480;11.946;2023-09-12T12:53:47;11.40;;;5.47;;
31348;SDS011;17976;48.480;11.946;2023-09-12T12:56:15;8.75;;;6.25;;
31348;SDS011;17976;48.480;11.946;2023-09-12T12:58:54;8.13;;;5.90;;
31348;SDS011;17976;48.480;11.946;2023-09-12T13:01:20;13.60;;;5.82;;
31348;SDS011;17976;48.480;11.946;2023-09-12T13:03:47;10.02;;;5.30;;
31348;SDS011;17976;48.480;11.946;2023-09-12T13:06:15;8.85;;;5.47;;
31348;SDS011;17976;48.480;11.946;2023-09-12T13:08:42;6.00;;;5.35;;
31348;SDS011;17976;48.480;11.946;2023-09-12T13:11:09;9.27;;;5.00;;
31348;SDS011;17976;48.480;11.946;2023-09-12T13:13:36;10.73;;;5.43;;
31348;SDS011;17976;48.480;11.946;2023-09-12T13:16:03;11.57;;;6.03;;
31348;SDS011;17976;48.480;11.946;2023-09-12T13:18:30;8.32;;;5.82;;
31348;SDS011;17976;48.480;11.946;2023-09-12T13:20:56;8.45;;;5.20;;
31348;SDS011;17976;48.480;11.946;2023-09-12T13:23:22;9.10;;;6.00;;
31348;SDS011;17976;48.480;11.946;2023-09-12T13:25:49;10.23;;;5.35;;
31348;SDS011;17976;48.480;11.946;2023-09-12T13:28:16;12.73;;;6.65;;
31348;SDS011;17976;48.480;11.946;2023-09-12T13:30:42;7.32;;;5.57;;
31348;SDS011;17976;48.480;11.946;2023-09-12T13:33:07;11.75;;;5.57;;
31348;SDS011;17976;48.480;11.946;2023-09-12T13:35:33;7.53;;;5.53;;
31348;SDS011;17976;48.480;11.946;2023-09-12T13:37:59;8.43;;;5.32;;
31348;SDS011;17976;48.480;11.946;2023-09-12T13:40:25;11.98;;;5.68;;
31348;SDS011;17976;48.480;11.946;2023-09-12T13:42:52;8.25;;;5.22;;
31348;SDS011;17976;48.480;11.946;2023-09-12T13:45:18;7.90;;;4.82;;
31348;SDS011;17976;48.480;11.946;2023-09-12T13:47:44;7.07;;;4.70;;
31348;SDS011;17976;48.480;11.946;2023-09-12T13:50:10;8.25;;;5.35;;
31348;SDS011;17976;48.480;11.946;2023-09-12T13:52:36;7.15;;;5.38;;
31348;SDS011;17976;48.480;11.946;2023-09-12T13:55:02;7.18;;;5.22;;
31348;SDS011;17976;48.480;11.946;2023-09-12T13:57:28;7.22;;;4.68;;
31348;SDS011;17976;48.480;11.946;2023-09-12T13:59:54;10.60;;;5.35;;
31348;SDS011;17976;48.480;11.946;2023-09-12T14:02:20;11.82;;;5.03;;
31348;SDS011;17976;48.480;11.946;2023-09-12T14:04:46;8.25;;;4.75;;
31348;SDS011;17976;48.480;11.946;2023-09-12T14:07:12;12.20;;;5.32;;
31348;SDS011;17976;48.480;11.946;2023-09-12T14:09:39;11.20;;;5.05;;
31348;SDS011;17976;48.480;11.946;2023-09-12T14:12:05;12.13;;;5.15;;
31348;SDS011;17976;48.480;11.946;2023-09-12T14:14:31;5.93;;;4.75;;
31348;SDS011;17976;48.480;11.946;2023-09-12T14:16:57;7.10;;;4.57;;
31348;SDS011;17976;48.480;11.946;2023-09-12T14:19:23;14.15;;;5.70;;
31348;SDS011;17976;48.480;11.946;2023-09-12T14:21:48;9.50;;;5.00;;
31348;SDS011;17976;48.480;11.946;2023-09-12T14:24:14;6.50;;;4.72;;
31348;SDS011;17976;48.480;11.946;2023-09-12T14:26:40;6.25;;;4.50;;
31348;SDS011;17976;48.480;11.946;2023-09-12T14:29:06;7.90;;;5.07;;
31348;SDS011;17976;48.480;11.946;2023-09-12T14:31:32;9.05;;;4.97;;
31348;SDS011;17976;48.480;11.946;2023-09-12T14:34:00;12.65;;;5.47;;
31348;SDS011;17976;48.480;11.946;2023-09-12T14:36:27;10.60;;;5.28;;
31348;SDS011;17976;48.480;11.946;2023-09-12T14:38:52;8.80;;;6.03;;
31348;SDS011;17976;48.480;11.946;2023-09-12T14:41:18;9.95;;;4.55;;
31348;SDS011;17976;48.480;11.946;2023-09-12T14:43:44;11.07;;;5.45;;
31348;SDS011;17976;48.480;11.946;2023-09-12T14:46:10;9.63;;;5.50;;
31348;SDS011;17976;48.480;11.946;2023-09-12T14:48:37;7.80;;;5.68;;
31348;SDS011;17976;48.480;11.946;2023-09-12T14:51:03;6.63;;;4.88;;
31348;SDS011;17976;48.480;11.946;2023-09-12T14:53:29;10.30;;;5.93;;
31348;SDS011;17976;48.480;11.946;2023-09-12T14:55:56;14.70;;;5.18;;
31348;SDS011;17976;48.480;11.946;2023-09-12T14:58:22;9.15;;;5.40;;
31348;SDS011;17976;48.480;11.946;2023-09-12T15:00:48;7.72;;;5.00;;
31348;SDS011;17976;48.480;11.946;2023-09-12T15:03:14;7.22;;;5.63;;
31348;SDS011;17976;48.480;11.946;2023-09-12T15:05:40;7.63;;;5.53;;
31348;SDS011;17976;48.480;11.946;2023-09-12T15:08:06;8.85;;;5.75;;
31348;SDS011;17976;48.480;11.946;2023-09-12T15:10:32;11.95;;;5.45;;
31348;SDS011;17976;48.480;11.946;2023-09-12T15:12:58;9.27;;;5.35;;
31348;SDS011;17976;48.480;11.946;2023-09-12T15:15:24;6.68;;;4.53;;
31348;SDS011;17976;48.480;11.946;2023-09-12T15:17:50;8.90;;;5.13;;
31348;SDS011;17976;48.480;11.946;2023-09-12T15:20:16;14.32;;;6.03;;
31348;SDS011;17976;48.480;11.946;2023-09-12T15:22:42;11.18;;;5.50;;
31348;SDS011;17976;48.480;11.946;2023-09-12T15:25:08;10.10;;;5.10;;
31348;SDS011;17976;48.480;11.946;2023-09-12T15:27:34;7.00;;;5.25;;
31348;SDS011;17976;48.480;11.946;2023-09-12T15:30:01;8.63;;;5.13;;
31348;SDS011;17976;48.480;11.946;2023-09-12T15:32:27;6.70;;;5.63;;
31348;SDS011;17976;48.480;11.946;2023-09-12T15:34:53;8.77;;;5.63;;
31348;SDS011;17976;48.480;11.946;2023-09-12T15:37:20;7.53;;;5.40;;
31348;SDS011;17976;48.480;11.946;2023-09-12T15:39:46;8.45;;;5.60;;
31348;SDS011;17976;48.480;11.946;2023-09-12T15:42:12;13.93;;;5.78;;
31348;SDS011;17976;48.480;11.946;2023-09-12T15:44:38;18.23;;;6.40;;
31348;SDS011;17976;48.480;11.946;2023-09-12T15:47:07;10.30;;;5.55;;
31348;SDS011;17976;48.480;11.946;2023-09-12T15:49:33;8.57;;;5.43;;
31348;SDS011;17976;48.480;11.946;2023-09-12T15:51:59;7.18;;;5.50;;
31348;SDS011;17976;48.480;11.946;2023-09-12T15:54:25;10.65;;;5.65;;
31348;SDS011;17976;48.480;11.946;2023-09-12T15:56:52;8.10;;;5.32;;
31348;SDS011;17976;48.480;11.946;2023-09-12T15:59:19;10.90;;;5.60;;
31348;SDS011;17976;48.480;11.946;2023-09-12T16:01:45;13.35;;;6.10;;
31348;SDS011;17976;48.480;11.946;2023-09-12T16:04:11;8.75;;;6.50;;
31348;SDS011;17976;48.480;11.946;2023-09-12T16:06:37;12.00;;;5.40;;
31348;SDS011;17976;48.480;11.946;2023-09-12T16:09:03;8.95;;;5.47;;
31348;SDS011;17976;48.480;11.946;2023-09-12T16:11:30;7.25;;;5.70;;
31348;SDS011;17976;48.480;11.946;2023-09-12T16:13:56;9.55;;;5.80;;
31348;SDS011;17976;48.480;11.946;2023-09-12T16:16:22;11.60;;;6.18;;
31348;SDS011;17976;48.480;11.946;2023-09-12T16:18:48;8.73;;;5.65;;
31348;SDS011;17976;48.480;11.946;2023-09-12T16:21:14;7.95;;;5.65;;
31348;SDS011;17976;48.480;11.946;2023-09-12T16:23:40;7.82;;;5.80;;
31348;SDS011;17976;48.480;11.946;2023-09-12T16:26:06;10.82;;;6.50;;
31348;SDS011;17976;48.480;11.946;2023-09-12T16:28:32;7.60;;;6.05;;
31348;SDS011;17976;48.480;11.946;2023-09-12T16:30:58;7.82;;;5.80;;
31348;SDS011;17976;48.480;11.946;2023-09-12T16:33:24;7.53;;;5.57;;
31348;SDS011;17976;48.480;11.946;2023-09-12T16:35:50;9.60;;;6.00;;
31348;SDS011;17976;48.480;11.946;2023-09-12T16:38:16;11.35;;;6.78;;
31348;SDS011;17976;48.480;11.946;2023-09-12T16:40:42;8.15;;;6.05;;
31348;SDS011;17976;48.480;11.946;2023-09-12T16:43:08;10.23;;;5.90;;
31348;SDS011;17976;48.480;11.946;2023-09-12T16:45:34;11.10;;;6.47;;
31348;SDS011;17976;48.480;11.946;2023-09-12T16:48:00;8.68;;;6.40;;
31348;SDS011;17976;48.480;11.946;2023-09-12T16:50:27;7.90;;;5.88;;
31348;SDS011;17976;48.480;11.946;2023-09-12T16:52:53;9.88;;;6.35;;
31348;SDS011;17976;48.480;11.946;2023-09-12T16:55:19;8.15;;;5.93;;
31348;SDS011;17976;48.480;11.946;2023-09-12T16:57:45;9.48;;;6.55;;
31348;SDS011;17976;48.480;11.946;2023-09-12T17:00:11;9.70;;;6.15;;
31348;SDS011;17976;48.480;11.946;2023-09-12T17:02:37;9.88;;;6.03;;
31348;SDS011;17976;48.480;11.946;2023-09-12T17:05:04;11.63;;;6.22;;
31348;SDS011;17976;48.480;11.946;2023-09-12T17:07:30;10.27;;;6.40;;
31348;SDS011;17976;48.480;11.946;2023-09-12T17:09:56;9.82;;;6.18;;
31348;SDS011;17976;48.480;11.946;2023-09-12T17:12:23;8.32;;;5.82;;
31348;SDS011;17976;48.480;11.946;2023-09-12T17:14:49;9.52;;;5.97;;
31348;SDS011;17976;48.480;11.946;2023-09-12T17:17:15;11.65;;;6.35;;
31348;SDS011;17976;48.480;11.946;2023-09-12T17:19:40;9.82;;;6.60;;
31348;SDS011;17976;48.480;11.946;2023-09-12T17:22:08;14.68;;;6.28;;
31348;SDS011;17976;48.480;11.946;2023-09-12T17:24:34;12.23;;;6.93;;
31348;SDS011;17976;48.480;11.946;2023-09-12T17:27:00;11.70;;;6.15;;
31348;SDS011;17976;48.480;11.946;2023-09-12T17:29:26;8.48;;;6.70;;
31348;SDS011;17976;48.480;11.946;2023-09-12T17:31:52;12.25;;;7.10;;
31348;SDS011;17976;48.480;11.946;2023-09-12T17:34:18;10.10;;;7.15;;
31348;SDS011;17976;48.480;11.946;2023-09-12T17:36:44;10.20;;;7.40;;
31348;SDS011;17976;48.480;11.946;2023-09-12T17:39:10;9.10;;;6.65;;
31348;SDS011;17976;48.480;11.946;2023-09-12T17:41:36;12.30;;;7.32;;
31348;SDS011;17976;48.480;11.946;2023-09-12T17:44:05;12.02;;;6.93;;
31348;SDS011;17976;48.480;11.946;2023-09-12T17:46:31;10.43;;;6.68;;
31348;SDS011;17976;48.480;11.946;2023-09-12T17:48:57;13.30;;;6.97;;
31348;SDS011;17976;48.480;11.946;2023-09-12T17:51:23;11.32;;;6.65;;
31348;SDS011;17976;48.480;11.946;2023-09-12T17:53:49;9.73;;;6.55;;
31348;SDS011;17976;48.480;11.946;2023-09-12T17:56:17;14.60;;;7.28;;
31348;SDS011;17976;48.480;11.946;2023-09-12T17:58:43;10.73;;;7.15;;
31348;SDS011;17976;48.480;11.946;2023-09-12T18:01:09;10.55;;;7.38;;
31348;SDS011;17976;48.480;11.946;2023-09-12T18:03:35;14.43;;;6.82;;
31348;SDS011;17976;48.480;11.946;2023-09-12T18:06:00;12.98;;;7.20;;
31348;SDS011;17976;48.480;11.946;2023-09-12T18:08:27;12.30;;;7.95;;
31348;SDS011;17976;48.480;11.946;2023-09-12T18:10:54;18.55;;;7.22;;
31348;SDS011;17976;48.480;11.946;2023-09-12T18:13:20;10.00;;;7.20;;
31348;SDS011;17976;48.480;11.946;2023-09-12T18:15:46;13.25;;;7.75;;
31348;SDS011;17976;48.480;11.946;2023-09-12T18:18:12;13.65;;;7.20;;
31348;SDS011;17976;48.480;11.946;2023-09-12T18:20:38;11.90;;;7.63;;
31348;SDS011;17976;48.480;11.946;2023-09-12T18:23:04;15.57;;;7.25;;
31348;SDS011;17976;48.480;11.946;2023-09-12T18:25:30;11.95;;;7.25;;
31348;SDS011;17976;48.480;11.946;2023-09-12T18:27:56;10.13;;;7.15;;
31348;SDS011;17976;48.480;11.946;2023-09-12T18:30:22;11.00;;;7.90;;
31348;SDS011;17976;48.480;11.946;2023-09-12T18:32:48;20.30;;;8.18;;
31348;SDS011;17976;48.480;11.946;2023-09-12T18:35:14;12.32;;;7.30;;
31348;SDS011;17976;48.480;11.946;2023-09-12T18:37:45;10.98;;;7.20;;
31348;SDS011;17976;48.480;11.946;2023-09-12T18:40:12;11.60;;;7.88;;
31348;SDS011;17976;48.480;11.946;2023-09-12T18:42:38;11.32;;;7.85;;
31348;SDS011;17976;48.480;11.946;2023-09-12T18:45:04;10.70;;;7.97;;
31348;SDS011;17976;48.480;11.946;2023-09-12T18:47:30;12.27;;;8.38;;
31348;SDS011;17976;48.480;11.946;2023-09-12T18:49:56;17.23;;;8.73;;
31348;SDS011;17976;48.480;11.946;2023-09-12T18:52:22;11.77;;;7.60;;
31348;SDS011;17976;48.480;11.946;2023-09-12T18:54:48;16.02;;;7.78;;
31348;SDS011;17976;48.480;11.946;2023-09-12T18:57:14;19.40;;;8.50;;
31348;SDS011;17976;48.480;11.946;2023-09-12T18:59:40;17.45;;;8.65;;
31348;SDS011;17976;48.480;11.946;2023-09-12T19:02:07;13.30;;;8.55;;
31348;SDS011;17976;48.480;11.946;2023-09-12T19:04:33;12.30;;;8.07;;
31348;SDS011;17976;48.480;11.946;2023-09-12T19:06:59;21.73;;;8.55;;
31348;SDS011;17976;48.480;11.946;2023-09-12T19:09:25;15.13;;;8.52;;
31348;SDS011;17976;48.480;11.946;2023-09-12T19:11:51;15.73;;;8.90;;
31348;SDS011;17976;48.480;11.946;2023-09-12T19:14:17;15.10;;;8.32;;
31348;SDS011;17976;48.480;11.946;2023-09-12T19:16:43;17.38;;;8.23;;
31348;SDS011;17976;48.480;11.946;2023-09-12T19:19:09;16.55;;;8.35;;
31348;SDS011;17976;48.480;11.946;2023-09-12T19:21:35;10.13;;;7.70;;
31348;SDS011;17976;48.480;11.946;2023-09-12T19:24:02;14.95;;;8.20;;
31348;SDS011;17976;48.480;11.946;2023-09-12T19:26:29;11.88;;;8.18;;
31348;SDS011;17976;48.480;11.946;2023-09-12T19:28:57;15.35;;;8.02;;
31348;SDS011;17976;48.480;11.946;2023-09-12T19:31:23;15.05;;;7.95;;
31348;SDS011;17976;48.480;11.946;2023-09-12T19:33:49;13.57;;;8.77;;
31348;SDS011;17976;48.480;11.946;2023-09-12T19:36:15;14.15;;;8.73;;
31348;SDS011;17976;48.480;11.946;2023-09-12T19:38:41;13.85;;;7.82;;
31348;SDS011;17976;48.480;11.946;2023-09-12T19:41:07;11.60;;;7.85;;
31348;SDS011;17976;48.480;11.946;2023-09-12T19:43:33;14.25;;;8.38;;
31348;SDS011;17976;48.480;11.946;2023-09-12T19:46:02;14.10;;;8.35;;
31348;SDS011;17976;48.480;11.946;2023-09-12T19:48:29;12.27;;;8.90;;
31348;SDS011;17976;48.480;11.946;2023-09-12T19:50:55;16.60;;;9.45;;
31348;SDS011;17976;48.480;11.946;2023-09-12T19:53:21;19.52;;;9.40;;
31348;SDS011;17976;48.480;11.946;2023-09-12T19:55:51;14.48;;;8.77;;
31348;SDS011;17976;48.480;11.946;2023-09-12T19:58:17;14.02;;;8.48;;
